Time;durP1;ratioP1;P1;durP2;ratioP2;P2;SDS_P1;SDS_P2;PMS_P1;PMS_P2;Temp;Humidity;BMP_temperature;BMP_pressure;BME280_temperature;BME280_humidity;BME280_pressure;Samples;Min_cycle;Max_cycle;Signal;HPM_P1;HPM_P2
2024/01/23 00:01:23;;;;;;;5.68;3.60;;;;;;;;;;5015518;28;20804;-81
2024/01/23 00:03:49;;;;;;;6.82;2.97;;;;;;;;;;5015583;28;20034;-80
2024/01/23 00:06:15;;;;;;;5.63;3.30;;;;;;;;;;5015345;28;20030;-81
2024/01/23 00:08:41;;;;;;;9.02;3.55;;;;;;;;;;5013762;28;20506;-81
2024/01/23 00:11:07;;;;;;;11.05;3.72;;;;;;;;;;5015204;28;20112;-81
2024/01/23 00:13:33;;;;;;;11.13;2.80;;;;;;;;;;5014356;28;20372;-81
2024/01/23 00:15:59;;;;;;;5.20;3.55;;;;;;;;;;5015285;28;20037;-81
2024/01/23 00:18:25;;;;;;;16.05;4.53;;;;;;;;;;5015305;28;20029;-81
2024/01/23 00:20:51;;;;;;;9.35;2.22;;;;;;;;;;5015363;28;20036;-81
2024/01/23 00:23:17;;;;;;;11.00;3.30;;;;;;;;;;5011302;28;20025;-81
2024/01/23 00:25:43;;;;;;;6.22;3.00;;;;;;;;;;5012313;28;20069;-81
2024/01/23 00:28:10;;;;;;;3.17;2.50;;;;;;;;;;5011418;28;20030;-81
2024/01/23 00:30:37;;;;;;;14.10;2.95;;;;;;;;;;5012211;28;20041;-81
2024/01/23 00:33:03;;;;;;;9.68;3.67;;;;;;;;;;4998306;28;20021;-81
2024/01/23 00:35:29;;;;;;;5.07;2.63;;;;;;;;;;5022574;28;20368;-80
2024/01/23 00:37:55;;;;;;;2.03;1.77;;;;;;;;;;5018536;28;20045;-81
2024/01/23 00:40:21;;;;;;;3.72;3.17;;;;;;;;;;5027682;28;20498;-81
2024/01/23 00:42:47;;;;;;;2.47;1.67;;;;;;;;;;5013117;28;20089;-81
2024/01/23 00:45:13;;;;;;;3.78;1.95;;;;;;;;;;5011821;28;20486;-81
2024/01/23 00:47:39;;;;;;;11.23;3.45;;;;;;;;;;5007039;28;20126;-81
2024/01/23 00:50:05;;;;;;;9.93;1.85;;;;;;;;;;5005019;28;20428;-81
2024/01/23 00:52:31;;;;;;;3.50;2.08;;;;;;;;;;5013164;28;20051;-81
2024/01/23 00:55:02;;;;;;;1.90;1.63;;;;;;;;;;5012105;28;20022;-81
2024/01/23 00:57:28;;;;;;;2.65;2.03;;;;;;;;;;5011592;28;20071;-81
2024/01/23 00:59:54;;;;;;;5.15;1.70;;;;;;;;;;5011114;28;20064;-81
2024/01/23 01:02:20;;;;;;;4.70;2.35;;;;;;;;;;5011119;28;20022;-81
2024/01/23 01:04:46;;;;;;;4.05;1.42;;;;;;;;;;5011134;28;20679;-81
2024/01/23 01:07:13;;;;;;;6.50;3.10;;;;;;;;;;5011500;28;20048;-81
2024/01/23 01:09:39;;;;;;;5.05;1.60;;;;;;;;;;5012093;28;20026;-81
2024/01/23 01:12:06;;;;;;;1.30;1.10;;;;;;;;;;5012512;28;20017;-80
2024/01/23 01:14:33;;;;;;;8.02;2.17;;;;;;;;;;5011182;28;20492;-81
2024/01/23 01:16:59;;;;;;;6.10;2.03;;;;;;;;;;5010927;28;20029;-81
2024/01/23 01:19:26;;;;;;;3.13;1.75;;;;;;;;;;5011595;28;20026;-81
2024/01/23 01:21:52;;;;;;;3.63;2.08;;;;;;;;;;5011772;28;20026;-81
2024/01/23 01:24:18;;;;;;;2.75;1.90;;;;;;;;;;5011709;28;20101;-81
2024/01/23 01:26:44;;;;;;;4.30;1.75;;;;;;;;;;5010659;28;20030;-81
2024/01/23 01:29:10;;;;;;;4.80;2.08;;;;;;;;;;5010778;28;20053;-80
2024/01/23 01:31:36;;;;;;;4.10;2.10;;;;;;;;;;5015158;28;20021;-81
2024/01/23 01:34:02;;;;;;;2.33;1.10;;;;;;;;;;5018162;28;20124;-81
2024/01/23 01:36:29;;;;;;;5.18;2.13;;;;;;;;;;5010447;28;20022;-80
2024/01/23 01:38:56;;;;;;;3.80;1.52;;;;;;;;;;5010809;28;20041;-81
2024/01/23 01:41:22;;;;;;;1.98;1.40;;;;;;;;;;5009678;28;20120;-81
2024/01/23 01:43:48;;;;;;;1.52;1.38;;;;;;;;;;5010914;28;20065;-81
2024/01/23 01:46:26;;;;;;;1.13;0.90;;;4.00;99.90;;;;;;5010527;28;20030;-81
2024/01/23 01:48:52;;;;;;;;;;;4.10;99.90;;;;;;5011173;28;20036;-81
2024/01/23 01:51:20;;;;;;;15.77;1.25;;;4.20;99.90;;;;;;5010785;28;19945;-81
2024/01/23 01:53:48;;;;;;;7.40;2.40;;;4.30;99.90;;;;;;5010663;28;20061;-81
2024/01/23 01:56:14;;;;;;;3.80;1.80;;;;;;;;;;5010295;28;20409;-81
2024/01/23 01:58:40;;;;;;;13.07;2.30;;;;;;;;;;5010277;28;20061;-81
2024/01/23 02:01:06;;;;;;;8.82;3.00;;;;;;;;;;5010085;28;20014;-81
2024/01/23 02:03:32;;;;;;;4.30;2.60;;;;;;;;;;5010111;28;20026;-81
2024/01/23 02:06:00;;;;;;;4.65;2.50;;;4.60;99.90;;;;;;5010488;28;20034;-81
2024/01/23 02:08:26;;;;;;;6.95;2.53;;;;;;;;;;5009692;28;20088;-81
2024/01/23 02:10:54;;;;;;;6.97;2.70;;;4.50;99.90;;;;;;5009130;28;20020;-81
2024/01/23 02:13:20;;;;;;;3.65;2.63;;;;;;;;;;5010497;28;20030;-81
2024/01/23 02:15:46;;;;;;;7.38;3.65;;;;;;;;;;5018908;28;20048;-81
2024/01/23 02:18:12;;;;;;;6.00;2.95;;;;;;;;;;5012699;28;20018;-81
2024/01/23 02:20:38;;;;;;;8.10;2.72;;;;;;;;;;5009904;28;20557;-81
2024/01/23 02:23:04;;;;;;;2.45;1.77;;;;;;;;;;5009904;28;20037;-81
2024/01/23 02:25:30;;;;;;;5.13;2.25;;;;;;;;;;5010138;28;20038;-81
2024/01/23 02:27:56;;;;;;;2.33;1.52;;;;;;;;;;5009778;28;20044;-81
2024/01/23 02:30:22;;;;;;;3.85;2.03;;;;;;;;;;5010130;28;20040;-81
2024/01/23 02:32:48;;;;;;;4.20;1.70;;;;;;;;;;5020681;28;20405;-81
2024/01/23 02:35:14;;;;;;;2.58;1.17;;;;;;;;;;5011417;28;20025;-81
2024/01/23 02:37:40;;;;;;;4.45;2.17;;;;;;;;;;5012183;28;20034;-81
2024/01/23 02:40:08;;;;;;;5.53;2.80;;;;;;;;;;5009514;28;20462;-80
2024/01/23 02:42:34;;;;;;;11.98;2.33;;;;;;;;;;5009525;28;20125;-81
2024/01/23 02:45:00;;;;;;;3.35;2.35;;;;;;;;;;5009104;28;20068;-81
2024/01/23 02:47:26;;;;;;;5.82;3.20;;;;;;;;;;5009286;28;20129;-81
2024/01/23 02:49:52;;;;;;;7.38;3.05;;;;;;;;;;5009318;28;20641;-81
2024/01/23 02:52:18;;;;;;;5.25;2.28;;;;;;;;;;5009384;28;20052;-81
2024/01/23 02:54:44;;;;;;;4.40;2.50;;;;;;;;;;5009184;28;20470;-81
2024/01/23 02:57:12;;;;;;;5.00;2.03;;;;;;;;;;5009778;28;20514;-80
2024/01/23 02:59:38;;;;;;;7.57;2.75;;;;;;;;;;5009525;28;20201;-81
2024/01/23 03:02:04;;;;;;;6.78;2.50;;;;;;;;;;5009547;28;20033;-81
2024/01/23 03:04:30;;;;;;;2.75;1.98;;;;;;;;;;5009118;28;20022;-81
2024/01/23 03:06:56;;;;;;;5.10;2.10;;;;;;;;;;5008769;28;20062;-81
2024/01/23 03:09:22;;;;;;;2.85;1.98;;;;;;;;;;5009320;28;20017;-81
2024/01/23 03:11:48;;;;;;;3.50;1.67;;;;;;;;;;5009088;28;20498;-81
2024/01/23 03:14:14;;;;;;;7.40;2.20;;;;;;;;;;5009878;28;20029;-81
2024/01/23 03:16:40;;;;;;;5.53;2.05;;;;;;;;;;5009661;28;20029;-81
2024/01/23 03:19:06;;;;;;;5.03;2.22;;;;;;;;;;5018720;28;20034;-81
2024/01/23 03:21:32;;;;;;;4.18;1.70;;;;;;;;;;5012262;28;20033;-81
2024/01/23 03:23:58;;;;;;;3.05;2.85;;;;;;;;;;5007999;28;20018;-81
2024/01/23 03:26:25;;;;;;;3.80;2.35;;;;;;;;;;5009120;28;20117;-81
2024/01/23 03:28:51;;;;;;;5.97;2.33;;;;;;;;;;5009101;28;20041;-81
2024/01/23 03:31:17;;;;;;;6.75;1.73;;;;;;;;;;5023408;28;20022;-81
2024/01/23 03:33:43;;;;;;;2.33;2.13;;;;;;;;;;5000891;28;20380;-81
2024/01/23 03:36:09;;;;;;;7.55;2.15;;;;;;;;;;5008406;28;20022;-81
2024/01/23 03:38:35;;;;;;;5.25;2.42;;;;;;;;;;5008686;28;20030;-81
2024/01/23 03:41:01;;;;;;;6.63;2.10;;;;;;;;;;5009967;28;20056;-81
2024/01/23 03:43:27;;;;;;;11.55;2.63;;;;;;;;;;5022769;28;20025;-81
2024/01/23 03:45:53;;;;;;;6.32;2.60;;;;;;;;;;5022234;28;20467;-80
2024/01/23 03:48:19;;;;;;;3.55;2.53;;;;;;;;;;5010712;28;20029;-81
2024/01/23 03:50:45;;;;;;;5.80;2.15;;;;;;;;;;5017848;28;20037;-81
2024/01/23 03:53:11;;;;;;;2.45;1.35;;;;;;;;;;5008868;28;20347;-81
2024/01/23 03:55:37;;;;;;;2.80;2.00;;;;;;;;;;5009241;28;20022;-81
2024/01/23 03:58:03;;;;;;;4.72;1.88;;;;;;;;;;5021189;28;20022;-81
2024/01/23 04:00:30;;;;;;;4.55;1.45;;;;;;;;;;5012374;28;20390;-80
2024/01/23 04:02:56;;;;;;;4.65;1.88;;;;;;;;;;5012248;28;20491;-81
2024/01/23 04:05:22;;;;;;;4.20;2.17;;;;;;;;;;5012277;28;20021;-81
2024/01/23 04:07:48;;;;;;;4.63;2.88;;;;;;;;;;5012058;28;20443;-81
2024/01/23 04:10:14;;;;;;;6.40;2.60;;;;;;;;;;5012066;28;20549;-81
2024/01/23 04:12:41;;;;;;;10.65;2.67;;;;;;;;;;5012266;28;20037;-81
2024/01/23 04:15:07;;;;;;;4.22;1.83;;;;;;;;;;5017216;28;20383;-81
2024/01/23 04:17:33;;;;;;;3.40;2.17;;;;;;;;;;5011212;28;20446;-81
2024/01/23 04:19:59;;;;;;;8.25;2.28;;;;;;;;;;5012409;28;20034;-81
2024/01/23 04:22:25;;;;;;;3.08;1.52;;;;;;;;;;5012736;28;20022;-81
2024/01/23 04:24:51;;;;;;;4.53;2.20;;;;;;;;;;5012119;28;20030;-81
2024/01/23 04:27:17;;;;;;;6.72;2.35;;;;;;;;;;5012805;28;20029;-81
2024/01/23 04:29:43;;;;;;;5.45;1.77;;;;;;;;;;5012073;28;20030;-81
2024/01/23 04:32:09;;;;;;;7.78;2.45;;;;;;;;;;5016841;28;20032;-81
2024/01/23 04:34:35;;;;;;;3.92;2.10;;;;;;;;;;5017044;28;20028;-81
2024/01/23 04:37:01;;;;;;;5.40;2.17;;;;;;;;;;5011833;28;20556;-81
2024/01/23 04:39:27;;;;;;;2.40;1.52;;;;;;;;;;5006448;28;20097;-81
2024/01/23 04:41:53;;;;;;;3.88;2.15;;;4.20;99.90;;;;;;5012242;28;20148;-81
2024/01/23 04:44:34;;;;;;;5.85;2.63;;;;;;;;;;5066238;28;20441;-80
2024/01/23 04:47:00;;;;;;;18.30;4.68;;;;;;;;;;5065281;28;20017;-80
2024/01/23 04:49:26;;;;;;;4.75;2.47;;;;;;;;;;5052148;28;20572;-80
2024/01/23 04:51:52;;;;;;;4.15;2.03;;;;;;;;;;5066380;28;20048;-80
2024/01/23 04:54:18;;;;;;;3.10;1.92;;;;;;;;;;5056235;28;20064;-80
2024/01/23 04:56:44;;;;;;;7.03;1.77;;;;;;;;;;5065535;28;20614;-80
2024/01/23 04:59:10;;;;;;;7.18;1.65;;;;;;;;;;5063122;28;20095;-80
2024/01/23 05:01:36;;;;;;;6.35;1.85;;;;;;;;;;5049514;28;20079;-80
2024/01/23 05:04:02;;;;;;;2.90;1.42;;;;;;;;;;5060183;28;20064;-80
2024/01/23 05:06:29;;;;;;;4.50;1.65;;;;;;;;;;5065103;28;20469;-80
2024/01/23 05:08:55;;;;;;;;;;;4.00;99.90;;;;;;5065031;28;20398;-79
2024/01/23 05:11:21;;;;;;;2.50;1.42;;;;;;;;;;5062810;28;19909;-80
2024/01/23 05:13:47;;;;;;;10.25;3.67;;;;;;;;;;5058287;28;20033;-79
2024/01/23 05:16:13;;;;;;;3.67;2.40;;;;;;;;;;5059417;28;20099;-80
2024/01/23 05:18:39;;;;;;;4.35;2.38;;;;;;;;;;5064639;28;20449;-80
2024/01/23 05:21:05;;;;;;;5.10;3.08;;;;;;;;;;5065093;28;20021;-80
2024/01/23 05:23:31;;;;;;;3.58;2.55;;;;;;;;;;5064620;28;20083;-80
2024/01/23 05:25:57;;;;;;;3.78;2.38;;;;;;;;;;5065911;28;20028;-80
2024/01/23 05:28:23;;;;;;;3.88;2.70;;;;;;;;;;5063732;28;20489;-80
2024/01/23 05:30:49;;;;;;;4.13;2.70;;;;;;;;;;5064876;28;20071;-81
2024/01/23 05:33:15;;;;;;;2.95;1.40;;;;;;;;;;5063716;28;20067;-80
2024/01/23 05:35:41;;;;;;;4.38;1.65;;;;;;;;;;5067371;28;20077;-80
2024/01/23 05:38:07;;;;;;;5.35;2.70;;;;;;;;;;5049626;28;20441;-80
2024/01/23 05:40:33;;;;;;;3.72;2.65;;;;;;;;;;5045983;28;20017;-80
2024/01/23 05:42:59;;;;;;;2.05;1.42;;;;;;;;;;5046232;28;20053;-81
2024/01/23 05:45:25;;;;;;;3.15;2.13;;;;;;;;;;5046679;28;20029;-79
2024/01/23 05:47:51;;;;;;;5.45;2.78;;;;;;;;;;5047807;28;20052;-80
2024/01/23 05:50:17;;;;;;;3.65;2.47;;;;;;;;;;5045731;28;20013;-80
2024/01/23 05:52:43;;;;;;;3.38;1.52;;;;;;;;;;5060691;28;20017;-80
2024/01/23 05:55:09;;;;;;;1.98;1.63;;;;;;;;;;5046947;28;20100;-80
2024/01/23 05:57:35;;;;;;;3.05;1.73;;;;;;;;;;5031987;28;20029;-81
2024/01/23 06:00:05;;;;;;;5.05;2.92;;;;;;;;;;5031839;28;20048;-80
2024/01/23 06:02:31;;;;;;;19.42;3.20;;;;;;;;;;5034876;28;20033;-81
2024/01/23 06:04:58;;;;;;;4.65;2.83;;;;;;;;;;5048509;28;20485;-80
2024/01/23 06:07:24;;;;;;;4.32;2.00;;;;;;;;;;5045477;28;20053;-80
2024/01/23 06:09:50;;;;;;;7.50;2.08;;;;;;;;;;5048202;28;20471;-80
2024/01/23 06:12:16;;;;;;;1.55;1.45;;;;;;;;;;5044584;28;20025;-80
2024/01/23 06:14:42;;;;;;;18.00;0.90;;;;;;;;;;5045083;28;20045;-81
2024/01/23 06:17:08;;;;;;;4.82;1.85;;;;;;;;;;5044419;28;20528;-80
2024/01/23 06:19:35;;;;;;;1.95;1.75;;;;;;;;;;5047827;28;20078;-80
2024/01/23 06:22:01;;;;;;;3.60;2.25;;;;;;;;;;5042403;28;20021;-80
2024/01/23 06:24:27;;;;;;;4.43;2.30;;;;;;;;;;5044161;28;20088;-80
2024/01/23 06:26:53;;;;;;;4.93;2.40;;;;;;;;;;5045419;28;20017;-80
2024/01/23 06:29:19;;;;;;;3.15;2.50;;;;;;;;;;5045236;28;20521;-80
2024/01/23 06:31:47;;;;;;;4.40;1.45;;;;;;;;;;5028992;28;20071;-80
2024/01/23 06:34:13;;;;;;;7.00;2.65;;;;;;;;;;5026322;28;20509;-80
2024/01/23 06:36:39;;;;;;;6.68;2.88;;;;;;;;;;5034712;28;20051;-80
2024/01/23 06:39:05;;;;;;;8.18;2.53;;;;;;;;;;5047161;28;20068;-80
2024/01/23 06:41:31;;;;;;;4.10;2.72;;;;;;;;;;5042570;28;20018;-80
2024/01/23 06:43:58;;;;;;;2.65;1.85;;;;;;;;;;5036678;28;20061;-80
2024/01/23 06:46:24;;;;;;;2.47;1.42;;;;;;;;;;5043973;28;20028;-80
2024/01/23 06:48:50;;;;;;;1.58;1.42;;;;;;;;;;5037803;28;20546;-75
2024/01/23 06:51:16;;;;;;;10.35;3.80;;;;;;;;;;5034268;28;20025;-78
2024/01/23 06:53:41;;;;;;;22.48;7.68;;;2.60;99.90;;;;;;5031752;28;20037;-79
2024/01/23 06:56:07;;;;;;;20.17;8.60;;;;;;;;;;5034061;28;20029;-79
2024/01/23 06:58:33;;;;;;;19.63;9.48;;;2.50;99.90;;;;;;5031608;28;20034;-79
2024/01/23 07:00:59;;;;;;;11.48;7.60;;;2.40;99.90;;;;;;5028070;28;20022;-79
2024/01/23 07:03:25;;;;;;;6.90;4.75;;;;;;;;;;5019259;28;20038;-79
2024/01/23 07:05:51;;;;;;;9.60;4.82;;;;;;;;;;5028152;28;20454;-79
2024/01/23 07:08:17;;;;;;;8.38;3.92;;;;;;;;;;5028610;28;20083;-79
2024/01/23 07:10:43;;;;;;;8.50;5.20;;;;;;;;;;5044795;28;20053;-79
2024/01/23 07:13:09;;;;;;;17.50;10.38;;;;;;;;;;5048243;28;20017;-79
2024/01/23 07:15:35;;;;;;;3.97;3.25;;;;;;;;;;5031468;28;20029;-79
2024/01/23 07:18:02;;;;;;;5.43;3.10;;;;;;;;;;5038770;28;20401;-79
2024/01/23 07:20:28;;;;;;;6.20;3.45;;;;;;;;;;5030166;28;20033;-79
2024/01/23 07:22:54;;;;;;;6.95;2.75;;;;;;;;;;5027855;28;20034;-78
2024/01/23 07:25:20;;;;;;;4.88;2.40;;;;;;;;;;5036168;28;20112;-78
2024/01/23 07:27:46;;;;;;;9.88;4.80;;;;;;;;;;5033496;28;20025;-78
2024/01/23 07:30:11;;;;;;;5.03;2.97;;;4.00;99.90;;;;;;5035239;28;20496;-77
2024/01/23 07:32:37;;;;;;;7.45;4.32;;;;;;;;;;5035039;28;20426;-76
2024/01/23 07:35:04;;;;;;;22.75;5.70;;;;;;;;;;5036104;28;20052;-78
2024/01/23 07:37:30;;;;;;;11.65;5.47;;;;;;;;;;5030807;28;20029;-78
2024/01/23 07:39:55;;;;;;;6.93;5.28;;;4.10;99.90;;;;;;5033583;28;20032;-75
2024/01/23 07:42:21;;;;;;;20.67;7.50;;;4.60;99.90;;;;;;5028878;28;20036;-77
2024/01/23 07:44:47;;;;;;;10.70;4.38;;;;;;;;;;5037627;28;20037;-75
2024/01/23 07:47:13;;;;;;;9.48;6.70;;;4.50;99.90;;;;;;5038571;28;20025;-75
2024/01/23 07:49:39;;;;;;;8.48;6.13;;;;;;;;;;5028378;28;20021;-75
2024/01/23 07:52:05;;;;;;;9.25;7.78;;;;;;;;;;5035401;28;20774;-76
2024/01/23 07:54:32;;;;;;;12.77;6.13;;;4.50;99.90;;;;;;5027509;28;20045;-77
2024/01/23 07:56:58;;;;;;;10.55;5.50;;;;;;;;;;5027292;28;20113;-76
2024/01/23 07:59:24;;;;;;;12.52;6.57;;;;;;;;;;5045010;28;20033;-77
2024/01/23 08:01:50;;;;;;;13.93;4.68;;;;;;;;;;5039821;28;20029;-77
2024/01/23 08:04:16;;;;;;;15.00;6.72;;;;;;;;;;5029844;28;20025;-77
2024/01/23 08:06:42;;;;;;;10.93;5.85;;;;;;;;;;5034740;28;20083;-79
2024/01/23 08:09:08;;;;;;;14.70;6.68;;;;;;;;;;5035678;28;20033;-77
2024/01/23 08:11:34;;;;;;;13.70;5.45;;;;;;;;;;5036839;28;20040;-77
2024/01/23 08:14:00;;;;;;;9.18;4.35;;;;;;;;;;5038204;28;20483;-77
2024/01/23 08:16:26;;;;;;;10.55;5.40;;;;;;;;;;5037606;28;20037;-80
2024/01/23 08:18:52;;;;;;;12.32;4.47;;;;;;;;;;5038486;28;20025;-78
2024/01/23 08:21:18;;;;;;;7.53;4.07;;;;;;;;;;5036414;28;20102;-77
2024/01/23 08:23:44;;;;;;;10.93;5.20;;;5.30;99.90;;;;;;5038127;28;20515;-77
2024/01/23 08:26:10;;;;;;;10.88;5.05;;;;;;;;;;5036621;28;20106;-74
2024/01/23 08:28:36;;;;;;;8.85;3.88;;;;;;;;;;5038711;28;20055;-74
2024/01/23 08:31:03;;;;;;;16.90;5.43;;;;;;;;;;5035718;28;20383;-73
2024/01/23 08:33:34;;;;;;;12.60;4.70;;;5.50;99.90;;;;;;5030762;28;20033;-75
2024/01/23 08:36:01;;;;;;;12.88;4.57;;;;;;;;;;5035762;28;20037;-76
2024/01/23 08:38:26;;;;;;;13.25;4.78;;;5.60;99.90;;;;;;5039865;28;20021;-75
2024/01/23 08:40:52;;;;;;;16.55;6.68;;;;;;;;;;5035301;28;20033;-75
2024/01/23 08:43:18;;;;;;;16.05;7.63;;;;;;;;;;5039741;28;20048;-74
2024/01/23 08:45:44;;;;;;;25.70;7.15;;;;;;;;;;5035337;28;20053;-77
2024/01/23 08:48:10;;;;;;;13.88;5.18;;;;;;;;;;5035867;28;20022;-76
2024/01/23 08:50:36;;;;;;;17.30;6.60;;;6.40;99.90;;;;;;5027677;28;20033;-74
2024/01/23 08:53:02;;;;;;;14.77;7.15;;;;;;;;;;5038141;28;20039;-75
2024/01/23 08:55:29;;;;;;;19.10;10.18;;;;;;;;;;5034325;28;20082;-76
2024/01/23 08:57:55;;;;;;;15.02;7.70;;;;;;;;;;5038079;28;20445;-76
2024/01/23 09:00:21;;;;;;;14.68;8.70;;;7.50;99.90;;;;;;5033738;28;20037;-76
2024/01/23 09:02:47;;;;;;;15.00;8.25;;;8.20;99.90;;;;;;5038887;28;20416;-76
2024/01/23 09:05:14;;;;;;;25.77;10.15;;;;;;;;;;5033940;28;20618;-78
2024/01/23 09:07:40;;;;;;;18.00;7.68;;;;;;;;;;5038578;28;20017;-78
2024/01/23 09:10:06;;;;;;;13.82;7.50;;;;;;;;;;5033225;28;20090;-77
2024/01/23 09:12:33;;;;;;;16.55;8.18;;;;;;;;;;5037278;28;20025;-77
2024/01/23 09:15:00;;;;;;;12.07;6.00;;;11.60;91.30;;;;;;5032839;28;20562;-75
2024/01/23 09:17:26;;;;;;;15.25;7.07;;;;;;;;;;5044173;28;20113;-76
2024/01/23 09:19:52;;;;;;;13.57;6.82;;;14.30;95.40;;;;;;5042536;28;20033;-75
2024/01/23 09:22:18;;;;;;;10.93;6.88;;;;;;;;;;5040314;28;20508;-76
2024/01/23 09:24:44;;;;;;;13.23;6.10;;;;;;;;;;5037709;28;20169;-77
2024/01/23 09:27:10;;;;;;;11.73;4.80;;;15.80;88.00;;;;;;5035107;28;20112;-78
2024/01/23 09:29:37;;;;;;;12.50;6.28;;;;;;;;;;5036066;28;20464;-79
2024/01/23 09:32:03;;;;;;;7.43;5.40;;;;;;;;;;5044307;28;20099;-78
2024/01/23 09:34:29;;;;;;;12.18;5.53;;;;;;;;;;5040548;28;20044;-79
2024/01/23 09:36:55;;;;;;;10.70;4.75;;;14.00;91.70;;;;;;5045008;28;20021;-79
2024/01/23 09:39:21;;;;;;;9.57;5.15;;;;;;;;;;5041665;28;20033;-80
2024/01/23 09:41:51;;;;;;;8.57;4.60;;;12.80;73.60;;;;;;5036158;28;20478;-75
2024/01/23 09:44:19;;;;;;;10.90;4.93;;;12.30;77.80;;;;;;5033963;28;20053;-76
2024/01/23 09:46:45;;;;;;;19.33;4.90;;;;;;;;;;5033453;28;20024;-78
2024/01/23 09:49:12;;;;;;;14.00;4.22;;;;;;;;;;5031648;28;20037;-77
2024/01/23 09:51:46;;;;;;;7.53;5.37;;;13.10;83.90;;;;;;5046899;28;20028;-72
2024/01/23 09:54:12;;;;;;;10.75;5.68;;;;;;;;;;5043934;28;20536;-75
2024/01/23 09:56:39;;;;;;;10.88;4.82;;;;;;;;;;5050244;28;20029;-75
2024/01/23 09:59:05;;;;;;;12.30;5.53;;;13.10;93.50;;;;;;5036807;28;20091;-74
2024/01/23 10:01:33;;;;;;;12.95;6.10;;;12.70;77.50;;;;;;5039843;28;20268;-74
2024/01/23 10:04:02;;;;;;;17.70;6.15;;;12.60;83.20;;;;;;5036795;28;20475;-74
2024/01/23 10:06:28;;;;;;;12.85;5.68;;;;;;;;;;5039150;28;20095;-74
2024/01/23 10:08:54;;;;;;;13.70;6.32;;;;;;;;;;5031931;28;20053;-76
2024/01/23 10:11:20;;;;;;;22.38;10.43;;;;;;;;;;5038715;28;20113;-76
2024/01/23 10:13:47;;;;;;;15.52;7.15;;;12.30;83.60;;;;;;5038007;28;20049;-77
2024/01/23 10:16:15;;;;;;;13.13;5.28;;;12.80;82.90;;;;;;5038634;28;20025;-77
2024/01/23 10:18:41;;;;;;;16.27;5.55;;;;;;;;;;5039031;28;20401;-77
2024/01/23 10:21:07;;;;;;;11.73;4.75;;;;;;;;;;5038067;28;20021;-78
2024/01/23 10:23:33;;;;;;;8.77;4.53;;;13.40;78.80;;;;;;5038137;28;20033;-75
2024/01/23 10:25:59;;;;;;;7.97;3.50;;;;;;;;;;5037059;28;20048;-77
2024/01/23 10:28:25;;;;;;;17.92;4.82;;;;;;;;;;5036802;28;20045;-75
2024/01/23 10:30:53;;;;;;;13.13;5.55;;;;;;;;;;5038864;28;20109;-73
2024/01/23 10:33:18;;;;;;;14.88;4.95;;;13.20;82.70;;;;;;5037859;28;20021;-78
2024/01/23 10:35:45;;;;;;;17.17;4.07;;;;;;;;;;5035646;28;20532;-78
2024/01/23 10:38:16;;;;;;;23.10;9.30;;;13.30;77.00;;;;;;5039859;28;20567;-75
2024/01/23 10:40:42;;;;;;;33.40;11.93;;;13.40;77.80;;;;;;5047247;28;20025;-78
2024/01/23 10:43:09;;;;;;;18.42;8.27;;;13.20;75.80;;;;;;5044971;28;20076;-78
2024/01/23 10:45:36;;;;;;;12.48;6.38;;;;;;;;;;5042521;28;20036;-77
2024/01/23 10:48:06;;;;;;;7.25;4.35;;;;;;;;;;5040312;28;20028;-76
2024/01/23 10:50:33;;;;;;;9.40;4.35;;;14.70;81.20;;;;;;5030157;28;20041;-75
2024/01/23 10:53:05;;;;;;;7.22;4.07;;;16.00;73.50;;;;;;5033970;28;20124;-77
2024/01/23 10:55:32;;;;;;;16.75;4.13;;;17.90;69.80;;;;;;5049321;28;20029;-78
2024/01/23 10:58:04;;;;;;;16.25;5.35;;;19.10;66.00;;;;;;5048287;28;20841;-78
2024/01/23 11:00:32;;;;;;;14.65;4.93;;;21.20;61.70;;;;;;5049830;28;20031;-74
2024/01/23 11:03:05;;;;;;;41.00;15.85;;;23.60;76.20;;;;;;5047205;28;20523;-75
2024/01/23 11:06:01;;;;;;;26.02;11.95;;;27.10;54.60;;;;;;5046414;28;20037;-75
2024/01/23 11:08:36;;;;;;;18.10;8.10;;;30.60;64.90;;;;;;5041219;28;20379;-76
2024/01/23 11:11:43;;;;;;;94.95;34.67;;;29.40;45.50;;;;;;5034979;28;20041;-75
2024/01/23 11:14:29;;;;;;;13.05;6.30;;;28.50;47.00;;;;;;5048353;28;20029;-76
2024/01/23 11:17:06;;;;;;;10.38;3.33;;;29.30;46.70;;;;;;5031567;28;20183;-76
2024/01/23 11:19:43;;;;;;;3.92;1.58;;;26.60;46.10;;;;;;5048939;28;20482;-76
2024/01/23 11:22:09;;;;;;;4.60;1.65;;;23.80;45.20;;;;;;5034764;28;20024;-75
2024/01/23 11:24:48;;;;;;;1.97;0.67;;;21.20;49.90;;;;;;5037660;28;20038;-75
2024/01/23 11:27:24;;;;;;;5.53;0.95;;;19.30;54.00;;;;;;5028852;28;20017;-75
2024/01/23 11:29:50;;;;;;;4.93;1.50;;;17.80;52.60;;;;;;5037417;28;20018;-75
2024/01/23 11:32:28;;;;;;;6.47;1.90;;;16.70;68.80;;;;;;5039085;28;20053;-75
2024/01/23 11:35:06;;;;;;;4.18;1.30;;;15.60;60.60;;;;;;5033496;28;20033;-74
2024/01/23 11:37:32;;;;;;;6.78;1.67;;;;;;;;;;5038592;28;20449;-75
2024/01/23 11:40:06;;;;;;;4.00;1.27;;;14.60;62.20;;;;;;5033399;28;20112;-75
2024/01/23 11:42:37;;;;;;;6.70;1.35;;;14.60;61.30;;;;;;5034205;28;20045;-75
2024/01/23 11:45:22;;;;;;;1.60;1.20;;;15.20;64.10;;;;;;5040827;28;20025;-75
2024/01/23 11:47:56;;;;;;;3.08;1.30;;;18.50;56.90;;;;;;5035392;28;20027;-76
2024/01/23 11:50:23;;;;;;;7.82;1.80;;;20.90;50.00;;;;;;5037117;28;20033;-75
2024/01/23 11:52:51;;;;;;;3.75;1.42;;;22.90;48.20;;;;;;5038066;28;20020;-75
2024/01/23 11:55:21;;;;;;;2.08;0.88;;;24.00;46.00;;;;;;5047970;28;20404;-75
2024/01/23 11:57:49;;;;;;;5.03;1.00;;;23.60;42.90;;;;;;5046547;28;20485;-75
2024/01/23 12:00:15;;;;;;;3.92;1.27;;;22.70;44.20;;;;;;5047480;28;20115;-76
2024/01/23 12:02:42;;;;;;;3.38;1.33;;;23.70;44.70;;;;;;5040120;28;20044;-75
2024/01/23 12:05:08;;;;;;;3.63;1.13;;;;;;;;;;5046631;28;20029;-76
2024/01/23 12:07:37;;;;;;;2.95;1.42;;;;;;;;;;5044979;28;20154;-76
2024/01/23 12:10:07;;;;;;;4.57;0.70;;;22.70;44.80;;;;;;5046611;28;20025;-75
2024/01/23 12:12:34;;;;;;;5.57;1.40;;;;;;;;;;5047168;28;20067;-75
2024/01/23 12:15:00;;;;;;;8.85;1.50;;;;;;;;;;5040648;28;20446;-76
2024/01/23 12:17:26;;;;;;;6.78;1.40;;;;;;;;;;5045129;28;20029;-75
2024/01/23 12:19:51;;;;;;;0.68;0.65;;;21.00;62.90;;;;;;5047110;28;20033;-76
2024/01/23 12:22:18;;;;;;;8.02;1.10;;;;;;;;;;5044429;28;20025;-75
2024/01/23 12:24:45;;;;;;;1.83;0.60;;;20.50;47.00;;;;;;5037613;28;20033;-76
2024/01/23 12:27:11;;;;;;;3.42;1.17;;;20.50;47.70;;;;;;5045824;28;20021;-76
2024/01/23 12:29:41;;;;;;;5.35;1.60;;;20.10;64.60;;;;;;5046268;28;20480;-75
2024/01/23 12:32:10;;;;;;;4.32;0.90;;;20.00;47.30;;;;;;5034489;28;20041;-75
2024/01/23 12:34:36;;;;;;;5.75;1.55;;;;;;;;;;5029890;28;20040;-74
2024/01/23 12:37:02;;;;;;;6.72;1.25;;;;;;;;;;5034576;28;20112;-75
2024/01/23 12:39:28;;;;;;;4.50;1.58;;;19.60;45.40;;;;;;5035966;28;20101;-75
2024/01/23 12:41:55;;;;;;;0.88;0.88;;;19.50;45.10;;;;;;5041628;28;20517;-74
2024/01/23 12:44:21;;;;;;;5.45;1.23;;;19.50;51.00;;;;;;5036550;28;20100;-74
2024/01/23 12:46:47;;;;;;;2.95;1.42;;;20.00;59.50;;;;;;5041659;28;20029;-79
2024/01/23 12:49:13;;;;;;;4.95;1.10;;;;;;;;;;5029125;28;20417;-74
2024/01/23 12:51:39;;;;;;;2.10;1.20;;;;;;;;;;5039964;28;20013;-74
2024/01/23 12:54:08;;;;;;;4.28;1.73;;;20.60;62.10;;;;;;5041380;28;20565;-75
2024/01/23 12:56:33;;;;;;;8.10;1.80;;;20.60;47.70;;;;;;5040125;28;20032;-75
2024/01/23 12:59:01;;;;;;;4.28;0.77;;;;;;;;;;5034645;28;20017;-75
2024/01/23 13:01:27;;;;;;;4.50;1.20;;;;;;;;;;5037523;28;20052;-75
2024/01/23 13:03:52;;;;;;;3.97;0.90;;;19.40;62.20;;;;;;5031865;28;20041;-75
2024/01/23 13:06:18;;;;;;;7.60;1.05;;;;;;;;;;5044850;28;20477;-76
2024/01/23 13:08:44;;;;;;;8.23;2.38;;;;;;;;;;5039011;28;20029;-75
2024/01/23 13:11:10;;;;;;;2.40;1.30;;;;;;;;;;5043736;28;20446;-75
2024/01/23 13:13:36;;;;;;;9.88;3.28;;;;;;;;;;5039818;28;20022;-75
2024/01/23 13:16:02;;;;;;;8.23;3.45;;;;;;;;;;5044252;28;20059;-75
2024/01/23 13:18:28;;;;;;;4.38;1.58;;;;;;;;;;5038826;28;20037;-74
2024/01/23 13:20:54;;;;;;;3.75;1.58;;;18.40;53.70;;;;;;5044736;28;20028;-75
2024/01/23 13:23:20;;;;;;;2.30;1.33;;;;;;;;;;5038969;28;20573;-76
2024/01/23 13:25:47;;;;;;;7.10;1.98;;;18.20;46.20;;;;;;5043880;28;20064;-74
2024/01/23 13:28:18;;;;;;;2.42;1.40;;;18.00;55.60;;;;;;5037860;28;20552;-75
2024/01/23 13:30:44;;;;;;;3.33;1.42;;;;;;;;;;5032663;28;20033;-75
2024/01/23 13:33:09;;;;;;;9.25;1.30;;;;;;;;;;5033592;28;20034;-76
2024/01/23 13:35:36;;;;;;;4.07;1.35;;;;;;;;;;5033021;28;20032;-76
2024/01/23 13:38:03;;;;;;;4.38;0.68;;;;;;;;;;5033504;28;20552;-76
2024/01/23 13:40:29;;;;;;;1.98;0.77;;;;;;;;;;5029146;28;20033;-76
2024/01/23 13:42:58;;;;;;;9.52;1.20;;;;;;;;;;5033548;28;20140;-76
2024/01/23 13:45:26;;;;;;;1.63;0.80;;;;;;;;;;5019868;28;20104;-76
2024/01/23 13:47:51;;;;;;;7.88;1.45;;;17.40;64.80;;;;;;5033100;28;20085;-76
2024/01/23 13:50:18;;;;;;;1.58;0.90;;;16.90;54.90;;;;;;5030337;28;20030;-76
2024/01/23 13:52:46;;;;;;;4.93;1.65;;;;;;;;;;5030961;28;20022;-75
2024/01/23 13:55:12;;;;;;;3.78;1.98;;;16.00;53.60;;;;;;5036330;28;20033;-73
2024/01/23 13:57:41;;;;;;;3.33;1.02;;;;;;;;;;5035119;28;20573;-75
2024/01/23 14:00:11;;;;;;;6.85;1.35;;;;;;;;;;5036662;28;20473;-74
2024/01/23 14:02:38;;;;;;;4.55;0.82;;;;;;;;;;5038147;28;20047;-73
2024/01/23 14:05:05;;;;;;;3.60;1.33;;;;;;;;;;5048119;28;20040;-73
2024/01/23 14:07:34;;;;;;;1.67;0.80;;;15.30;59.40;;;;;;5044791;28;20035;-74